createdAt,value
2022-12-11T00:00:25.427Z,94883.18
2022-12-11T00:03:15.938Z,94884.39
2022-12-11T00:05:45.337Z,94880.45
2022-12-11T00:08:13.404Z,94880.10
2022-12-11T00:10:47.295Z,94874.39
2022-12-11T00:13:14.231Z,94874.22
2022-12-11T00:15:40.881Z,94872.20
2022-12-11T00:18:12.119Z,94875.39
2022-12-11T00:20:38.780Z,94871.48
2022-12-11T00:23:05.495Z,94867.95
2022-12-11T00:25:32.163Z,94868.64
2022-12-11T00:27:58.839Z,94860.98
2022-12-11T00:30:25.473Z,94856.82
2022-12-11T00:32:52.114Z,94855.28
2022-12-11T00:35:18.923Z,94856.65
2022-12-11T00:37:45.616Z,94854.52
2022-12-11T00:40:12.234Z,94849.63
2022-12-11T00:42:38.942Z,94850.10
2022-12-11T00:45:06.023Z,94846.36
2022-12-11T00:47:32.642Z,94838.59
2022-12-11T00:49:59.343Z,94837.36
2022-12-11T00:52:26.826Z,94839.64
2022-12-11T00:54:53.462Z,94837.56
2022-12-11T00:57:20.105Z,94838.35
2022-12-11T00:59:47.052Z,94833.54
2022-12-11T01:02:13.782Z,94831.39
2022-12-11T01:04:40.546Z,94829.00
2022-12-11T01:07:07.429Z,94835.16
2022-12-11T01:09:53.835Z,94840.91
2022-12-11T01:12:20.510Z,94836.70
2022-12-11T01:14:47.337Z,94831.13
2022-12-11T01:17:14.087Z,94829.77
2022-12-11T01:19:40.697Z,94831.33
2022-12-11T01:22:07.395Z,94833.54
2022-12-11T01:24:34.269Z,94834.39
2022-12-11T01:27:00.921Z,94833.67
2022-12-11T01:29:27.627Z,94836.83
2022-12-11T01:31:54.366Z,94837.13
2022-12-11T01:34:21.330Z,94840.63
2022-12-11T01:36:48.027Z,94839.13
2022-12-11T01:39:14.735Z,94832.87
2022-12-11T01:41:41.416Z,94827.64
2022-12-11T01:44:28.077Z,94827.25
2022-12-11T01:46:54.761Z,94821.54
2022-12-11T01:49:25.633Z,94822.51
2022-12-11T01:52:03.366Z,94820.14
2022-12-11T01:54:30.721Z,94819.38
2022-12-11T01:57:03.238Z,94818.41
2022-12-11T01:59:33.681Z,94821.48
2022-12-11T02:02:11.992Z,94823.95
2022-12-11T02:04:41.385Z,94819.43
2022-12-11T02:07:09.730Z,94812.41
2022-12-11T02:09:39.563Z,94811.92
2022-12-11T02:12:26.479Z,94811.68
2022-12-11T02:15:20.671Z,94810.00
2022-12-11T02:17:55.109Z,94809.19
2022-12-11T02:20:32.661Z,94805.36
2022-12-11T02:23:08.232Z,94803.63
2022-12-11T02:25:53.711Z,94804.84
2022-12-11T02:28:29.292Z,94807.09
2022-12-11T02:31:06.819Z,94805.93
2022-12-11T02:33:39.901Z,94808.61
2022-12-11T02:36:09.271Z,94807.30
2022-12-11T02:38:41.146Z,94807.55
2022-12-11T02:41:11.371Z,94802.67
2022-12-11T02:43:40.076Z,94798.11
2022-12-11T02:46:08.304Z,94795.25
2022-12-11T02:48:36.667Z,94798.34
2022-12-11T02:51:06.243Z,94791.07
2022-12-11T02:53:37.015Z,94793.25
2022-12-11T02:56:28.911Z,94786.65
2022-12-11T02:59:00.658Z,94778.80
2022-12-11T03:01:27.968Z,94782.56
2022-12-11T03:03:56.243Z,94783.95
2022-12-11T03:06:28.824Z,94779.73
2022-12-11T03:08:55.759Z,94781.43
2022-12-11T03:11:22.522Z,94781.06
2022-12-11T03:13:49.443Z,94781.80
2022-12-11T03:16:35.475Z,94779.00
2022-12-11T03:19:23.943Z,94774.64
2022-12-11T03:22:09.247Z,94778.44
2022-12-11T03:24:58.901Z,94780.62
2022-12-11T03:27:27.807Z,94778.51
2022-12-11T03:29:59.760Z,94778.14
2022-12-11T03:32:30.838Z,94774.79
2022-12-11T03:35:08.166Z,94770.60
2022-12-11T03:37:39.397Z,94767.27
2022-12-11T03:40:15.453Z,94768.83
2022-12-11T03:42:44.762Z,94764.83
2022-12-11T03:45:13.816Z,94765.19
2022-12-11T03:47:41.668Z,94760.44
2022-12-11T03:50:12.021Z,94757.44
2022-12-11T03:52:46.002Z,94754.95
2022-12-11T03:55:15.944Z,94754.30
2022-12-11T03:57:44.162Z,94751.12
2022-12-11T04:00:14.772Z,94759.19
2022-12-11T04:02:42.475Z,94749.54
2022-12-11T04:05:11.167Z,94748.48
2022-12-11T04:07:38.215Z,94749.14
2022-12-11T04:10:05.578Z,94749.09
2022-12-11T04:12:32.288Z,94752.34
2022-12-11T04:15:01.994Z,94752.25
2022-12-11T04:17:53.611Z,94749.13
2022-12-11T04:20:39.495Z,94749.98
2022-12-11T04:23:29.882Z,94744.56
2022-12-11T04:26:05.711Z,94742.77
2022-12-11T04:28:32.469Z,94742.81
2022-12-11T04:30:59.279Z,94741.48
2022-12-11T04:33:26.604Z,94742.36
2022-12-11T04:35:53.547Z,94743.04
2022-12-11T04:38:20.345Z,94745.78
2022-12-11T04:40:46.999Z,94742.14
2022-12-11T04:43:13.846Z,94743.84
2022-12-11T04:45:41.217Z,94747.55
2022-12-11T04:48:11.125Z,94745.86
2022-12-11T04:50:38.303Z,94744.38
2022-12-11T04:53:04.947Z,94742.54
2022-12-11T04:55:31.645Z,94739.27
2022-12-11T04:57:58.313Z,94736.52
2022-12-11T05:00:25.008Z,94734.17
2022-12-11T05:02:51.796Z,94731.06
2022-12-11T05:05:18.630Z,94733.55
2022-12-11T05:07:45.375Z,94727.99
2022-12-11T05:10:12.148Z,94730.70
2022-12-11T05:12:38.935Z,94735.63
2022-12-11T05:15:06.054Z,94729.63
2022-12-11T05:17:33.193Z,94730.13
2022-12-11T05:19:59.877Z,94723.73
2022-12-11T05:22:26.527Z,94720.52
2022-12-11T05:24:53.220Z,94725.20
2022-12-11T05:27:20.398Z,94720.20
2022-12-11T05:29:47.108Z,94713.15
2022-12-11T05:32:13.759Z,94707.65
2022-12-11T05:34:40.595Z,94709.65
2022-12-11T05:37:07.630Z,94708.10
2022-12-11T05:39:34.601Z,94703.97
2022-12-11T05:42:01.250Z,94702.35
2022-12-11T05:44:27.982Z,94701.63
2022-12-11T05:46:54.726Z,94701.52
2022-12-11T05:49:25.925Z,94694.80
2022-12-11T05:51:55.838Z,94694.52
2022-12-11T05:54:22.621Z,94694.85
2022-12-11T05:56:50.928Z,94694.02
2022-12-11T05:59:19.150Z,94691.12
2022-12-11T06:01:46.258Z,94690.70
2022-12-11T06:04:13.870Z,94691.20
2022-12-11T06:06:43.441Z,94684.41
2022-12-11T06:09:14.104Z,94681.93
2022-12-11T06:11:41.991Z,94682.00
2022-12-11T06:14:10.385Z,94678.05
2022-12-11T06:16:37.359Z,94680.52
2022-12-11T06:19:04.100Z,94682.79
2022-12-11T06:21:32.721Z,94682.20
2022-12-11T06:24:02.482Z,94683.04
2022-12-11T06:26:29.844Z,94682.85
2022-12-11T06:28:56.664Z,94685.59
2022-12-11T06:31:23.401Z,94689.45
2022-12-11T06:33:50.385Z,94686.79
2022-12-11T06:36:20.915Z,94690.52
2022-12-11T06:38:47.768Z,94689.70
2022-12-11T06:41:15.402Z,94692.95
2022-12-11T06:43:42.555Z,94695.23
2022-12-11T06:46:14.720Z,94702.55
2022-12-11T06:48:41.951Z,94702.53
2022-12-11T06:51:14.588Z,94712.17
2022-12-11T06:53:41.717Z,94711.27
2022-12-11T06:56:12.106Z,94712.84
2022-12-11T06:58:39.580Z,94709.75
2022-12-11T07:01:18.415Z,94707.36
2022-12-11T07:03:46.162Z,94708.33
2022-12-11T07:06:13.739Z,94712.25
2022-12-11T07:08:43.516Z,94707.23
2022-12-11T07:11:15.181Z,94707.19
2022-12-11T07:13:42.500Z,94708.31
2022-12-11T07:16:11.308Z,94708.55
2022-12-11T07:18:39.650Z,94703.21
2022-12-11T07:21:07.736Z,94703.92
2022-12-11T07:23:35.323Z,94713.84
2022-12-11T07:26:07.755Z,94721.31
2022-12-11T07:28:35.505Z,94722.25
2022-12-11T07:31:07.197Z,94719.03
2022-12-11T07:33:34.091Z,94722.11
2022-12-11T07:36:02.792Z,94728.77
2022-12-11T07:38:29.781Z,94731.63
2022-12-11T07:41:00.412Z,94729.44
2022-12-11T07:43:27.133Z,94728.16
2022-12-11T07:45:53.806Z,94719.40
2022-12-11T07:48:20.713Z,94711.16
2022-12-11T07:50:47.489Z,94714.14
2022-12-11T07:53:14.414Z,94716.10
2022-12-11T07:55:41.203Z,94722.07
2022-12-11T07:58:07.939Z,94721.06
2022-12-11T08:00:34.590Z,94720.59
2022-12-11T08:03:01.334Z,94719.29
2022-12-11T08:05:28.460Z,94716.45
2022-12-11T08:07:55.481Z,94711.81
2022-12-11T08:10:22.375Z,94710.18
2022-12-11T08:12:49.515Z,94719.61
2022-12-11T08:15:16.293Z,94716.92
2022-12-11T08:17:42.954Z,94716.67
2022-12-11T08:20:10.553Z,94717.50
2022-12-11T08:22:37.346Z,94718.35
2022-12-11T08:25:04.581Z,94716.35
2022-12-11T08:27:31.240Z,94710.61
2022-12-11T08:29:57.899Z,94713.33
2022-12-11T08:32:25.013Z,94708.05
2022-12-11T08:34:52.053Z,94713.73
2022-12-11T08:37:18.852Z,94717.79
2022-12-11T08:39:52.239Z,94723.27
2022-12-11T08:42:22.366Z,94715.95
2022-12-11T08:44:49.705Z,94714.27
2022-12-11T08:47:16.550Z,94716.89
2022-12-11T08:49:44.036Z,94712.98
2022-12-11T08:52:11.814Z,94708.95
2022-12-11T08:54:38.672Z,94705.90
2022-12-11T08:57:05.479Z,94703.00
2022-12-11T08:59:32.271Z,94706.73
2022-12-11T09:01:58.924Z,94709.48
2022-12-11T09:04:25.587Z,94705.01
2022-12-11T09:06:55.265Z,94705.07
2022-12-11T09:09:25.119Z,94706.20
2022-12-11T09:11:52.016Z,94707.11
2022-12-11T09:14:18.833Z,94710.97
2022-12-11T09:16:45.621Z,94705.29
2022-12-11T09:19:14.424Z,94705.11
2022-12-11T09:21:42.646Z,94706.56
2022-12-11T09:24:11.698Z,94705.19
2022-12-11T09:26:39.299Z,94713.00
2022-12-11T09:29:07.004Z,94711.34
2022-12-11T09:31:35.923Z,94709.23
2022-12-11T09:34:08.926Z,94709.27
2022-12-11T09:36:38.644Z,94700.77
2022-12-11T09:39:07.665Z,94705.62
2022-12-11T09:41:55.024Z,94700.21
2022-12-11T09:44:42.897Z,94690.70
2022-12-11T09:47:19.512Z,94688.41
2022-12-11T09:49:49.116Z,94688.69
2022-12-11T09:52:37.403Z,94682.86
2022-12-11T09:55:16.911Z,94678.88
2022-12-11T09:57:58.761Z,94673.13
2022-12-11T10:00:48.832Z,94670.47
2022-12-11T10:03:27.677Z,94666.39
2022-12-11T10:06:06.264Z,94667.84
2022-12-11T10:08:44.343Z,94669.27
2022-12-11T10:11:56.123Z,94671.02
2022-12-11T10:15:01.070Z,94673.32
2022-12-11T10:17:31.824Z,94676.77
2022-12-11T10:20:14.975Z,94680.02
2022-12-11T10:22:42.245Z,94681.73
2022-12-11T10:25:19.777Z,94676.77
2022-12-11T10:27:46.847Z,94682.66
2022-12-11T10:30:38.927Z,94682.97
2022-12-11T10:33:22.165Z,94678.12
2022-12-11T10:35:53.092Z,94675.42
2022-12-11T10:38:31.953Z,94673.79
2022-12-11T10:41:21.187Z,94670.24
2022-12-11T10:43:50.091Z,94669.19
2022-12-11T10:46:28.032Z,94669.44
2022-12-11T10:49:00.138Z,94669.20
2022-12-11T10:51:29.655Z,94670.55
2022-12-11T10:54:07.193Z,94671.73
2022-12-11T10:56:36.506Z,94668.16
2022-12-11T10:59:03.888Z,94667.70
2022-12-11T11:01:34.706Z,94665.54
2022-12-11T11:04:18.768Z,94666.86
2022-12-11T11:06:45.503Z,94663.88
2022-12-11T11:09:35.006Z,94655.02
2022-12-11T11:12:07.710Z,94651.89
2022-12-11T11:14:34.872Z,94650.52
2022-12-11T11:17:01.693Z,94651.13
2022-12-11T11:19:34.592Z,94649.27
2022-12-11T11:22:04.081Z,94651.05
2022-12-11T11:24:41.903Z,94649.94
2022-12-11T11:27:23.967Z,94647.59
2022-12-11T11:29:57.679Z,94647.62
2022-12-11T11:32:33.282Z,94643.21
2022-12-11T11:35:30.268Z,94641.67
2022-12-11T11:38:03.298Z,94643.31
2022-12-11T11:40:40.997Z,94643.27
2022-12-11T11:43:36.510Z,94648.23
2022-12-11T11:46:31.006Z,94651.19
2022-12-11T11:49:12.752Z,94652.36
2022-12-11T11:51:45.142Z,94648.89
2022-12-11T11:54:30.941Z,94648.80
2022-12-11T11:57:00.976Z,94646.88
2022-12-11T11:59:39.135Z,94646.27
2022-12-11T12:02:17.819Z,94644.14
2022-12-11T12:04:46.170Z,94641.41
2022-12-11T12:07:50.950Z,94643.38
2022-12-11T12:10:40.110Z,94638.20
2022-12-11T12:13:49.533Z,94639.05
2022-12-11T12:19:21.452Z,94637.19
2022-12-11T12:21:52.367Z,94639.11
2022-12-11T12:24:47.513Z,94640.73
2022-12-11T12:27:51.171Z,94641.10
2022-12-11T12:30:20.365Z,94639.54
2022-12-11T12:33:14.076Z,94639.77
2022-12-11T12:36:06.578Z,94643.69
2022-12-11T12:38:54.807Z,94644.59
2022-12-11T12:41:38.941Z,94653.09
2022-12-11T12:44:14.267Z,94649.22
2022-12-11T12:46:50.334Z,94652.61
2022-12-11T12:49:34.925Z,94651.33
2022-12-11T12:52:04.530Z,94656.77
2022-12-11T12:54:33.540Z,94659.56
2022-12-11T12:57:03.663Z,94655.73
2022-12-11T12:59:30.571Z,94658.02
2022-12-11T13:02:00.623Z,94656.48
2022-12-11T13:04:57.866Z,94659.48
2022-12-11T13:07:29.563Z,94653.67
2022-12-11T13:10:00.627Z,94656.80
2022-12-11T13:12:41.844Z,94660.41
2022-12-11T13:15:46.357Z,94671.29
2022-12-11T13:18:35.694Z,94680.06
2022-12-11T13:21:28.636Z,94682.36
2022-12-11T13:24:23.429Z,94682.54
2022-12-11T13:26:51.130Z,94691.02
2022-12-11T13:29:36.270Z,94695.95
2022-12-11T13:32:08.914Z,94703.52
2022-12-11T13:34:38.650Z,94710.60
2022-12-11T13:37:06.862Z,94717.42
2022-12-11T13:39:36.949Z,94717.67
2022-12-11T13:42:38.865Z,94717.38
2022-12-11T13:45:07.509Z,94717.11
2022-12-11T13:47:35.805Z,94720.85
2022-12-11T13:50:30.637Z,94716.59
2022-12-11T13:53:01.873Z,94713.60
2022-12-11T13:55:32.162Z,94710.99
2022-12-11T13:57:59.177Z,94706.86
2022-12-11T14:00:32.194Z,94706.77
2022-12-11T14:03:04.482Z,94709.13
2022-12-11T14:05:31.479Z,94713.25
2022-12-11T14:08:08.257Z,94707.51
2022-12-11T14:10:35.962Z,94709.23
2022-12-11T14:13:07.120Z,94709.14
2022-12-11T14:15:35.804Z,94714.36
2022-12-11T14:18:04.335Z,94722.39
2022-12-11T14:20:34.327Z,94719.54
2022-12-11T14:23:08.974Z,94720.17
2022-12-11T14:25:35.703Z,94725.82
2022-12-11T14:28:03.174Z,94731.58
2022-12-11T14:30:32.747Z,94728.26
2022-12-11T14:33:04.711Z,94724.05
2022-12-11T14:35:41.083Z,94721.55
2022-12-11T14:38:15.983Z,94723.25
2022-12-11T14:40:46.549Z,94721.67
2022-12-11T14:43:31.049Z,94726.18
2022-12-11T14:46:02.499Z,94726.10
2022-12-11T14:48:43.318Z,94727.24
2022-12-11T14:51:14.498Z,94724.64
2022-12-11T14:53:45.997Z,94722.27
2022-12-11T14:56:29.390Z,94717.11
2022-12-11T14:59:03.305Z,94719.90
2022-12-11T15:01:35.322Z,94728.44
2022-12-11T15:04:06.434Z,94730.88
2022-12-11T15:06:43.706Z,94729.02
2022-12-11T15:09:49.664Z,94725.13
2022-12-11T15:12:19.027Z,94727.25
2022-12-11T15:15:00.431Z,94731.95
2022-12-11T15:17:30.558Z,94737.02
2022-12-11T15:20:10.919Z,94731.70
2022-12-11T15:22:42.860Z,94734.53
2022-12-11T15:25:22.512Z,94741.05
2022-12-11T15:27:52.509Z,94746.98
2022-12-11T15:30:26.236Z,94743.23
2022-12-11T15:33:09.262Z,94740.96
2022-12-11T15:35:39.209Z,94742.85
2022-12-11T15:38:06.385Z,94747.60
2022-12-11T15:40:33.154Z,94751.28
2022-12-11T15:43:01.759Z,94752.39
2022-12-11T15:45:28.651Z,94755.36
2022-12-11T15:47:56.740Z,94758.90
2022-12-11T15:50:28.733Z,94766.06
2022-12-11T15:52:56.578Z,94770.86
2022-12-11T15:55:27.006Z,94775.81
2022-12-11T15:57:58.938Z,94781.98
2022-12-11T16:00:27.532Z,94783.80
2022-12-11T16:02:56.281Z,94787.70
2022-12-11T16:05:25.891Z,94788.23
2022-12-11T16:07:54.231Z,94787.55
2022-12-11T16:10:21.751Z,94786.55
2022-12-11T16:12:48.523Z,94783.34
2022-12-11T16:15:21.485Z,94780.97
2022-12-11T16:17:59.054Z,94783.83
2022-12-11T16:20:25.754Z,94783.52
2022-12-11T16:22:52.450Z,94781.98
2022-12-11T16:25:19.183Z,94781.09
2022-12-11T16:27:46.680Z,94780.25
2022-12-11T16:30:13.777Z,94782.65
2022-12-11T16:32:40.481Z,94791.10
2022-12-11T16:35:07.236Z,94789.88
2022-12-11T16:37:33.961Z,94785.62
2022-12-11T16:40:00.788Z,94783.58
2022-12-11T16:42:28.072Z,94782.77
2022-12-11T16:45:02.820Z,94785.05
2022-12-11T16:47:29.772Z,94785.75
2022-12-11T16:49:58.816Z,94788.00
2022-12-11T16:52:25.514Z,94792.02
2022-12-11T16:54:52.533Z,94789.34
2022-12-11T16:57:20.043Z,94789.00
2022-12-11T16:59:47.893Z,94786.52
2022-12-11T17:02:14.921Z,94790.27
2022-12-11T17:04:42.138Z,94790.23
2022-12-11T17:07:09.535Z,94784.84
2022-12-11T17:09:36.818Z,94781.31
2022-12-11T17:12:04.917Z,94780.21
2022-12-11T17:14:32.105Z,94783.30
2022-12-11T17:17:00.024Z,94784.34
2022-12-11T17:19:26.831Z,94786.66
2022-12-11T17:21:54.928Z,94788.73
2022-12-11T17:24:22.006Z,94788.12
2022-12-11T17:26:49.958Z,94787.24
2022-12-11T17:29:16.824Z,94786.80
2022-12-11T17:31:44.063Z,94786.51
2022-12-11T17:34:10.919Z,94789.50
2022-12-11T17:36:37.775Z,94788.66
2022-12-11T17:39:04.552Z,94788.58
2022-12-11T17:41:31.489Z,94791.45
2022-12-11T17:43:58.210Z,94787.74
2022-12-11T17:46:25.173Z,94785.94
2022-12-11T17:48:51.944Z,94792.20
2022-12-11T17:51:23.920Z,94791.40
2022-12-11T17:53:54.789Z,94793.27
2022-12-11T17:56:22.700Z,94800.02
2022-12-11T17:58:50.137Z,94803.57
2022-12-11T18:01:17.646Z,94802.70
2022-12-11T18:03:44.720Z,94802.80
2022-12-11T18:06:13.973Z,94808.05
2022-12-11T18:08:41.622Z,94806.66
2022-12-11T18:11:12.494Z,94808.92
2022-12-11T18:13:40.172Z,94814.55
2022-12-11T18:16:11.717Z,94815.10
2022-12-11T18:18:38.821Z,94815.81
2022-12-11T18:21:05.880Z,94812.73
2022-12-11T18:23:33.331Z,94810.98
2022-12-11T18:26:01.225Z,94809.30
2022-12-11T18:28:31.349Z,94810.58
2022-12-11T18:31:02.328Z,94814.59
2022-12-11T18:33:30.029Z,94816.55
2022-12-11T18:35:56.851Z,94810.41
2022-12-11T18:38:23.815Z,94810.80
2022-12-11T18:40:50.515Z,94805.11
2022-12-11T18:43:17.337Z,94804.85
2022-12-11T18:45:44.991Z,94802.88
2022-12-11T18:48:12.714Z,94803.66
2022-12-11T18:50:48.616Z,94803.23
2022-12-11T18:53:16.369Z,94803.58
2022-12-11T18:55:45.248Z,94798.55
2022-12-11T18:58:15.036Z,94801.70
2022-12-11T19:00:45.990Z,94803.23
2022-12-11T19:03:13.533Z,94806.91
2022-12-11T19:05:43.049Z,94806.33
2022-12-11T19:08:13.275Z,94801.98
2022-12-11T19:10:45.014Z,94799.90
2022-12-11T19:13:12.973Z,94808.48
2022-12-11T19:15:42.125Z,94805.21
2022-12-11T19:18:10.421Z,94799.71
2022-12-11T19:20:48.960Z,94805.00
2022-12-11T19:23:16.729Z,94800.80
2022-12-11T19:25:45.602Z,94800.48
2022-12-11T19:28:13.854Z,94800.29
2022-12-11T19:30:48.479Z,94799.51
2022-12-11T19:33:16.279Z,94790.95
2022-12-11T19:35:43.376Z,94790.40
2022-12-11T19:38:10.205Z,94790.70
2022-12-11T19:40:42.874Z,94795.10
2022-12-11T19:43:10.193Z,94796.23
2022-12-11T19:45:37.755Z,94794.58
2022-12-11T19:48:05.175Z,94794.90
2022-12-11T19:50:35.752Z,94791.73
2022-12-11T19:53:03.429Z,94793.23
2022-12-11T19:55:30.360Z,94790.65
2022-12-11T19:57:58.230Z,94787.69
2022-12-11T20:00:25.120Z,94782.34
2022-12-11T20:02:52.487Z,94777.26
2022-12-11T20:05:19.288Z,94777.84
2022-12-11T20:07:46.062Z,94775.17
2022-12-11T20:10:12.876Z,94773.48
2022-12-11T20:12:40.922Z,94776.23
2022-12-11T20:15:08.324Z,94781.49
2022-12-11T20:17:36.348Z,94782.39
2022-12-11T20:20:03.253Z,94779.25
2022-12-11T20:22:29.931Z,94784.67
2022-12-11T20:24:56.703Z,94785.62
2022-12-11T20:27:25.612Z,94791.23
2022-12-11T20:29:52.402Z,94792.59
2022-12-11T20:32:19.250Z,94797.80
2022-12-11T20:34:46.041Z,94795.92
2022-12-11T20:37:13.715Z,94798.52
2022-12-11T20:39:40.673Z,94805.50
2022-12-11T20:42:09.491Z,94802.98
2022-12-11T20:44:36.257Z,94803.58
2022-12-11T20:47:03.074Z,94802.65
2022-12-11T20:49:29.779Z,94806.17
2022-12-11T20:51:56.545Z,94805.72
2022-12-11T20:54:23.466Z,94804.60
2022-12-11T20:56:50.710Z,94803.97
2022-12-11T20:59:17.895Z,94805.71
2022-12-11T21:01:44.682Z,94801.88
2022-12-11T21:04:11.582Z,94798.22
2022-12-11T21:06:40.867Z,94802.80
2022-12-11T21:09:12.350Z,94805.01
2022-12-11T21:11:39.483Z,94804.48
2022-12-11T21:14:06.750Z,94800.49
2022-12-11T21:16:35.971Z,94801.08
2022-12-11T21:19:04.210Z,94805.73
2022-12-11T21:21:32.659Z,94813.41
2022-12-11T21:23:59.319Z,94815.27
2022-12-11T21:26:25.973Z,94817.86
2022-12-11T21:28:52.809Z,94817.55
2022-12-11T21:31:20.054Z,94814.36
2022-12-11T21:33:47.700Z,94814.06
2022-12-11T21:36:15.427Z,94811.77
2022-12-11T21:38:44.262Z,94807.73
2022-12-11T21:41:14.972Z,94807.92
2022-12-11T21:44:14.604Z,94809.20
2022-12-11T21:46:29.914Z,94813.56
2022-12-11T21:48:59.014Z,94814.80
2022-12-11T21:51:37.664Z,94822.16
2022-12-11T21:54:08.565Z,94822.56
2022-12-11T21:56:37.141Z,94825.09
2022-12-11T21:59:03.896Z,94826.52
2022-12-11T22:01:34.585Z,94823.80
2022-12-11T22:04:02.629Z,94826.34
2022-12-11T22:06:29.387Z,94828.89
2022-12-11T22:08:56.032Z,94821.91
2022-12-11T22:11:27.288Z,94820.11
2022-12-11T22:13:54.129Z,94818.38
2022-12-11T22:16:21.025Z,94817.86
2022-12-11T22:18:47.937Z,94819.28
2022-12-11T22:21:15.729Z,94821.70
2022-12-11T22:23:44.005Z,94818.90
2022-12-11T22:26:16.405Z,94820.73
2022-12-11T22:28:43.294Z,94819.98
2022-12-11T22:31:11.676Z,94820.13
2022-12-11T22:33:38.758Z,94818.02
2022-12-11T22:36:06.095Z,94813.61
2022-12-11T22:38:34.093Z,94812.63
2022-12-11T22:41:02.564Z,94807.89
2022-12-11T22:43:29.306Z,94806.60
2022-12-11T22:45:56.107Z,94801.71
2022-12-11T22:48:27.149Z,94798.69
2022-12-11T22:50:54.285Z,94795.80
2022-12-11T22:53:21.781Z,94794.99
2022-12-11T22:55:48.551Z,94796.85
2022-12-11T22:58:21.407Z,94799.58
2022-12-11T23:00:48.596Z,94799.40
2022-12-11T23:03:15.999Z,94801.47
2022-12-11T23:05:42.863Z,94801.95
2022-12-11T23:08:09.768Z,94799.48
2022-12-11T23:10:39.883Z,94796.58
2022-12-11T23:13:06.976Z,94801.89
2022-12-11T23:15:33.708Z,94803.21
2022-12-11T23:18:00.371Z,94801.56
2022-12-11T23:20:27.647Z,94806.95
2022-12-11T23:22:54.368Z,94811.61
2022-12-11T23:25:22.272Z,94811.87
2022-12-11T23:27:49.141Z,94810.36
2022-12-11T23:30:16.004Z,94808.93
2022-12-11T23:32:42.738Z,94808.86
2022-12-11T23:35:09.679Z,94807.45
2022-12-11T23:37:37.012Z,94808.20
2022-12-11T23:40:04.845Z,94807.59
2022-12-11T23:42:34.254Z,94805.42
2022-12-11T23:45:00.990Z,94797.47
2022-12-11T23:47:27.766Z,94796.40
2022-12-11T23:49:54.389Z,94795.16
2022-12-11T23:52:22.385Z,94794.36
2022-12-11T23:54:52.002Z,94795.15
2022-12-11T23:57:18.673Z,94795.02
2022-12-11T23:59:45.393Z,94793.98
